createdAt,value
2019-02-06T00:01:26.034Z,20.50
2019-02-06T00:03:59.330Z,20.20
2019-02-06T00:06:32.521Z,20.97
2019-02-06T00:09:12.837Z,21.47
2019-02-06T00:11:44.346Z,20.10
2019-02-06T00:14:16.036Z,20.23
2019-02-06T00:16:47.539Z,20.20
2019-02-06T00:19:18.802Z,19.73
2019-02-06T00:21:50.174Z,20.53
2019-02-06T00:24:21.515Z,19.73
2019-02-06T00:26:54.812Z,21.27
2019-02-06T00:29:26.269Z,20.73
2019-02-06T00:31:59.437Z,21.67
2019-02-06T00:34:31.952Z,18.73
2019-02-06T00:37:10.269Z,19.33
2019-02-06T00:39:41.732Z,19.43
2019-02-06T00:42:44.300Z,21.87
2019-02-06T00:44:58.919Z,19.53
2019-02-06T00:47:30.477Z,20.00
2019-02-06T00:50:12.079Z,20.47
2019-02-06T00:52:44.425Z,19.97
2019-02-06T00:55:21.611Z,19.87
2019-02-06T00:57:53.025Z,20.40
2019-02-06T01:00:24.494Z,20.03
2019-02-06T01:02:57.288Z,19.67
2019-02-06T01:05:42.840Z,19.83
2019-02-06T01:08:20.429Z,18.57
2019-02-06T01:10:56.849Z,19.33
2019-02-06T01:13:31.597Z,20.93
2019-02-06T01:16:09.748Z,19.57
2019-02-06T01:18:48.326Z,18.63
2019-02-06T01:21:19.693Z,19.03
2019-02-06T01:23:51.244Z,19.57
2019-02-06T01:26:31.371Z,19.60
2019-02-06T01:29:26.451Z,19.27
2019-02-06T01:32:03.810Z,20.67
2019-02-06T01:34:39.132Z,20.00
2019-02-06T01:37:13.354Z,19.67
2019-02-06T01:39:51.361Z,20.00
2019-02-06T01:42:22.749Z,18.17
2019-02-06T01:44:54.814Z,20.40
2019-02-06T01:47:26.069Z,19.67
2019-02-06T01:49:59.132Z,19.13
2019-02-06T01:52:31.387Z,19.93
2019-02-06T01:55:03.440Z,19.70
2019-02-06T01:57:34.982Z,18.17
2019-02-06T02:00:17.883Z,20.33
2019-02-06T02:02:49.271Z,19.27
2019-02-06T02:05:22.222Z,18.80
2019-02-06T02:07:59.794Z,19.27
2019-02-06T02:10:31.984Z,19.83
2019-02-06T02:13:03.960Z,18.53
2019-02-06T02:15:35.748Z,19.03
2019-02-06T02:18:07.119Z,18.87
2019-02-06T02:20:38.768Z,19.93
2019-02-06T02:23:10.611Z,17.30
2019-02-06T02:25:42.109Z,19.53
2019-02-06T02:28:13.848Z,20.23
2019-02-06T02:30:51.510Z,19.73
2019-02-06T02:33:24.638Z,19.13
2019-02-06T02:35:56.069Z,19.53
2019-02-06T02:38:27.878Z,19.57
2019-02-06T02:41:21.912Z,17.97
2019-02-06T02:43:54.779Z,18.50
2019-02-06T02:46:26.169Z,19.90
2019-02-06T02:48:59.972Z,20.20
2019-02-06T02:51:31.403Z,18.30
2019-02-06T02:54:02.639Z,18.97
2019-02-06T02:56:35.701Z,18.87
2019-02-06T02:59:06.944Z,18.80
2019-02-06T03:02:10.411Z,18.90
2019-02-06T03:04:49.603Z,18.43
2019-02-06T03:07:30.737Z,18.93
2019-02-06T03:10:32.334Z,19.27
2019-02-06T03:13:29.841Z,19.63
2019-02-06T03:16:05.038Z,17.90
2019-02-06T03:18:42.262Z,18.97
2019-02-06T03:21:13.730Z,18.57
2019-02-06T03:23:45.056Z,16.83
2019-02-06T03:26:16.434Z,18.07
2019-02-06T03:28:48.908Z,17.97
2019-02-06T03:31:20.617Z,17.27
2019-02-06T03:33:52.038Z,18.67
2019-02-06T03:36:23.720Z,18.03
2019-02-06T03:39:24.137Z,18.87
2019-02-06T03:42:03.763Z,18.13
2019-02-06T03:44:35.344Z,17.83
2019-02-06T03:47:06.718Z,17.60
2019-02-06T03:49:38.046Z,18.73
2019-02-06T03:52:24.309Z,18.90
2019-02-06T03:54:58.814Z,19.07
2019-02-06T03:57:30.206Z,19.13
2019-02-06T04:00:01.537Z,18.00
2019-02-06T04:02:34.767Z,17.17
2019-02-06T04:05:06.704Z,18.90
2019-02-06T04:07:39.533Z,18.10
2019-02-06T04:10:14.331Z,18.07
2019-02-06T04:12:45.997Z,17.63
2019-02-06T04:15:18.093Z,18.43
2019-02-06T04:17:50.287Z,18.07
2019-02-06T04:20:21.598Z,19.60
2019-02-06T04:22:53.726Z,17.73
2019-02-06T04:25:24.948Z,18.30
2019-02-06T04:27:57.772Z,17.73
2019-02-06T04:30:29.384Z,18.80
2019-02-06T04:33:02.651Z,17.77
2019-02-06T04:35:34.705Z,17.57
2019-02-06T04:38:05.933Z,16.37
2019-02-06T04:40:37.359Z,19.37
2019-02-06T04:43:08.609Z,17.10
2019-02-06T04:45:40.000Z,17.47
2019-02-06T04:48:11.440Z,17.03
2019-02-06T04:50:42.785Z,18.20
2019-02-06T04:53:15.432Z,18.40
2019-02-06T04:55:46.721Z,17.97
2019-02-06T04:58:18.071Z,17.80
2019-02-06T05:00:49.919Z,18.33
2019-02-06T05:03:38.710Z,17.60
2019-02-06T05:06:13.024Z,18.20
2019-02-06T05:08:44.405Z,17.43
2019-02-06T05:11:16.013Z,18.23
2019-02-06T05:13:47.381Z,17.30
2019-02-06T05:16:18.948Z,17.30
2019-02-06T05:18:53.576Z,16.93
2019-02-06T05:21:24.882Z,16.43
2019-02-06T05:23:56.165Z,18.13
2019-02-06T05:26:27.543Z,18.50
2019-02-06T05:29:00.528Z,18.93
2019-02-06T05:34:48.447Z,18.63
2019-02-06T05:37:31.753Z,19.20
2019-02-06T05:39:57.425Z,18.97
2019-02-06T05:42:28.749Z,19.33
2019-02-06T05:45:00.781Z,18.03
2019-02-06T05:47:35.749Z,19.13
2019-02-06T05:50:08.483Z,18.83
2019-02-06T05:52:53.000Z,18.67
2019-02-06T05:55:25.307Z,20.17
2019-02-06T05:58:08.916Z,19.07
2019-02-06T06:00:48.706Z,18.47
2019-02-06T06:03:29.446Z,19.63
2019-02-06T06:06:12.796Z,21.07
2019-02-06T06:08:50.257Z,20.37
2019-02-06T06:11:21.794Z,20.30
2019-02-06T06:13:53.135Z,19.80
2019-02-06T06:16:24.746Z,20.17
2019-02-06T06:18:56.164Z,20.03
2019-02-06T06:21:31.308Z,20.40
2019-02-06T06:24:09.094Z,20.97
2019-02-06T06:26:41.565Z,20.37
2019-02-06T06:29:20.154Z,19.50
2019-02-06T06:32:04.544Z,20.33
2019-02-06T06:34:40.145Z,22.00
2019-02-06T06:37:11.531Z,19.43
2019-02-06T06:39:42.932Z,19.87
2019-02-06T06:42:14.421Z,20.93
2019-02-06T06:44:54.425Z,21.60
2019-02-06T06:47:27.590Z,20.00
2019-02-06T06:49:58.958Z,20.80
2019-02-06T06:52:30.927Z,20.33
2019-02-06T06:55:03.861Z,20.50
2019-02-06T06:57:35.605Z,20.97
2019-02-06T07:00:09.377Z,23.17
2019-02-06T07:02:42.205Z,21.33
2019-02-06T07:05:13.750Z,20.57
2019-02-06T07:07:45.326Z,20.53
2019-02-06T07:13:16.614Z,20.60
2019-02-06T07:15:48.120Z,21.23
2019-02-06T07:18:19.881Z,22.23
2019-02-06T07:30:01.852Z,21.47
2019-02-06T07:32:36.325Z,22.50
2019-02-06T07:50:16.545Z,20.83
2019-02-06T07:52:47.875Z,21.73
2019-02-06T07:55:19.943Z,21.30
2019-02-06T07:57:51.405Z,21.43
2019-02-06T08:00:24.420Z,20.93
2019-02-06T08:02:57.251Z,22.27
2019-02-06T08:05:33.043Z,20.30
2019-02-06T08:08:04.639Z,20.57
2019-02-06T08:10:36.211Z,20.00
2019-02-06T08:13:07.685Z,19.77
2019-02-06T08:15:42.861Z,20.67
2019-02-06T08:18:17.193Z,19.23
2019-02-06T08:20:54.046Z,20.20
2019-02-06T08:23:25.689Z,20.37
2019-02-06T10:07:00.379Z,18.93
2019-02-06T13:52:19.493Z,11.63
2019-02-06T13:54:51.731Z,12.20
2019-02-06T13:57:38.506Z,12.33
2019-02-06T14:00:13.921Z,10.27
2019-02-06T14:02:53.094Z,11.20
2019-02-06T14:05:47.088Z,11.93
2019-02-06T14:08:54.580Z,11.37
2019-02-06T14:11:28.985Z,12.13
2019-02-06T14:14:04.469Z,11.87
2019-02-06T14:17:02.191Z,11.63
2019-02-06T14:19:28.595Z,11.53
2019-02-06T14:22:09.973Z,12.57
2019-02-06T14:25:17.357Z,12.17
2019-02-06T14:28:44.901Z,11.63
2019-02-06T14:32:17.809Z,12.97
2019-02-06T14:35:24.279Z,12.33
2019-02-06T14:38:27.706Z,12.80
2019-02-06T14:41:47.250Z,11.97
2019-02-06T14:44:42.503Z,12.83
2019-02-06T14:47:49.278Z,12.53
2019-02-06T14:50:36.193Z,12.40
2019-02-06T14:53:55.318Z,12.33
2019-02-06T14:57:00.051Z,13.37
2019-02-06T15:00:24.120Z,12.70
2019-02-06T15:03:54.840Z,13.10
2019-02-06T15:07:03.425Z,13.47
2019-02-06T15:10:15.531Z,13.03
2019-02-06T15:13:17.667Z,13.63
2019-02-06T15:16:17.797Z,14.43
2019-02-06T15:19:02.735Z,14.87
2019-02-06T15:22:07.415Z,14.77
2019-02-06T15:25:02.680Z,14.60
2019-02-06T15:28:19.719Z,16.23
2019-02-06T15:31:19.532Z,15.87
2019-02-06T15:34:16.554Z,15.73
2019-02-06T15:37:23.034Z,16.73
2019-02-06T15:40:25.528Z,16.07
2019-02-06T15:43:38.823Z,17.03
2019-02-06T15:46:30.840Z,17.20
2019-02-06T15:49:32.372Z,18.43
2019-02-06T15:52:21.557Z,18.70
2019-02-06T15:55:23.415Z,17.50
2019-02-06T15:58:27.310Z,18.17
2019-02-06T16:01:53.242Z,18.67
2019-02-06T16:05:19.818Z,21.10
2019-02-06T16:08:22.085Z,19.40
2019-02-06T16:11:21.636Z,20.73
2019-02-06T16:14:29.917Z,23.60
2019-02-06T16:17:33.889Z,26.80
2019-02-06T16:21:13.878Z,25.33
2019-02-06T16:24:33.902Z,31.87
2019-02-06T16:27:29.409Z,30.40
2019-02-06T16:30:19.507Z,33.60
2019-02-06T16:33:14.533Z,34.23
2019-02-06T16:36:23.522Z,33.77
2019-02-06T16:39:30.798Z,34.87
2019-02-06T16:42:24.796Z,34.30
2019-02-06T16:45:28.973Z,34.63
2019-02-06T16:48:47.100Z,42.97
2019-02-06T16:51:35.762Z,38.40
2019-02-06T16:54:38.745Z,36.77
2019-02-06T16:57:48.849Z,35.13
2019-02-06T17:00:48.641Z,36.50
2019-02-06T17:03:56.664Z,36.77
2019-02-06T17:06:50.463Z,36.50
2019-02-06T17:09:37.834Z,34.77
2019-02-06T17:12:48.835Z,35.17
2019-02-06T17:16:12.985Z,37.77
2019-02-06T17:19:17.436Z,41.07
2019-02-06T17:22:20.061Z,43.23
2019-02-06T17:25:49.156Z,41.60
2019-02-06T17:28:55.459Z,41.87
2019-02-06T17:31:48.775Z,40.40
2019-02-06T17:34:38.238Z,41.80
2019-02-06T17:37:31.219Z,40.53
2019-02-06T17:40:33.449Z,40.90
2019-02-06T17:43:23.055Z,38.03
2019-02-06T17:46:21.831Z,41.80
2019-02-06T17:49:41.715Z,42.43
2019-02-06T17:52:47.363Z,43.57
2019-02-06T17:55:20.730Z,39.87
2019-02-06T17:57:54.688Z,40.93
2019-02-06T18:00:36.345Z,39.37
2019-02-06T18:03:09.524Z,42.60
2019-02-06T18:05:41.812Z,38.90
2019-02-06T18:08:13.412Z,38.33
2019-02-06T18:10:44.150Z,37.63
2019-02-06T18:13:16.988Z,36.97
2019-02-06T18:15:48.375Z,38.93
2019-02-06T18:18:19.745Z,36.33
2019-02-06T18:20:51.128Z,36.30
2019-02-06T18:23:21.916Z,37.03
2019-02-06T18:25:53.430Z,34.93
2019-02-06T18:28:24.020Z,33.90
2019-02-06T18:30:54.662Z,31.63
2019-02-06T18:33:25.712Z,33.07
2019-02-06T18:35:57.227Z,30.73
2019-02-06T18:38:28.767Z,32.57
2019-02-06T18:41:00.887Z,33.63
2019-02-06T18:43:33.531Z,31.93
2019-02-06T18:46:05.477Z,33.47
2019-02-06T18:48:38.425Z,33.13
2019-02-06T18:51:11.150Z,31.23
2019-02-06T18:53:43.858Z,31.83
2019-02-06T18:56:15.434Z,32.63
2019-02-06T18:58:48.104Z,32.63
2019-02-06T19:01:21.441Z,33.50
2019-02-06T19:03:53.542Z,34.00
2019-02-06T19:06:24.893Z,33.93
2019-02-06T19:08:56.443Z,34.27
2019-02-06T19:11:28.958Z,31.83
2019-02-06T19:14:00.405Z,33.03
2019-02-06T19:16:31.770Z,33.93
2019-02-06T19:19:03.473Z,34.43
2019-02-06T19:21:37.651Z,34.40
2019-02-06T19:24:08.420Z,34.10
2019-02-06T19:26:40.333Z,34.97
2019-02-06T19:29:12.810Z,34.57
2019-02-06T19:31:44.494Z,33.33
2019-02-06T19:34:15.853Z,34.70
2019-02-06T19:36:48.092Z,33.77
2019-02-06T19:39:19.549Z,32.70
2019-02-06T19:41:55.313Z,33.33
2019-02-06T19:44:28.147Z,33.43
2019-02-06T19:47:00.085Z,33.53
2019-02-06T19:49:31.534Z,33.13
2019-02-06T19:52:03.207Z,32.73
2019-02-06T19:54:35.153Z,34.17
2019-02-06T19:57:06.628Z,34.27
2019-02-06T19:59:38.761Z,34.60
2019-02-06T20:02:11.327Z,33.27
2019-02-06T20:04:42.808Z,34.30
2019-02-06T20:07:14.321Z,34.77
2019-02-06T20:09:46.705Z,33.10
2019-02-06T20:12:19.988Z,34.10
2019-02-06T20:14:51.526Z,34.23
2019-02-06T20:17:22.810Z,35.27
2019-02-06T20:20:14.570Z,32.60
2019-02-06T20:22:49.260Z,34.77
2019-02-06T20:25:20.677Z,34.93
2019-02-06T20:27:52.392Z,34.07
2019-02-06T20:30:25.913Z,33.37
2019-02-06T20:32:59.018Z,32.60
2019-02-06T20:35:30.306Z,31.77
2019-02-06T20:38:01.989Z,33.80
2019-02-06T20:40:34.835Z,33.33
2019-02-06T20:43:06.377Z,33.93
2019-02-06T20:45:40.194Z,33.37
2019-02-06T20:48:11.802Z,34.03
2019-02-06T20:50:43.733Z,34.67
2019-02-06T20:53:14.996Z,33.57
2019-02-06T20:55:46.323Z,32.93
2019-02-06T20:58:17.609Z,32.20
2019-02-06T21:00:49.199Z,33.67
2019-02-06T21:03:22.597Z,34.93
2019-02-06T21:05:57.189Z,33.53
2019-02-06T21:08:28.684Z,34.33
2019-02-06T21:10:59.956Z,33.57
2019-02-06T21:13:34.034Z,34.57
2019-02-06T21:16:05.728Z,34.87
2019-02-06T21:18:37.058Z,34.90
2019-02-06T21:21:08.404Z,34.53
2019-02-06T21:23:40.448Z,35.70
2019-02-06T21:26:11.802Z,35.30
2019-02-06T21:28:43.149Z,35.03
2019-02-06T21:31:17.582Z,36.97
2019-02-06T21:33:48.874Z,34.83
2019-02-06T21:36:21.002Z,37.40
2019-02-06T21:38:52.855Z,37.53
2019-02-06T21:41:32.485Z,35.63
2019-02-06T21:44:03.967Z,35.93
2019-02-06T21:46:35.225Z,36.97
2019-02-06T21:49:06.598Z,36.97
2019-02-06T21:51:37.994Z,41.00
2019-02-06T21:54:09.504Z,39.00
2019-02-06T21:56:41.033Z,38.47
2019-02-06T21:59:12.610Z,37.27
2019-02-06T22:01:44.747Z,37.93
2019-02-06T22:04:16.045Z,38.57
2019-02-06T22:06:47.393Z,37.97
2019-02-06T22:09:19.087Z,37.70
2019-02-06T22:11:50.066Z,37.20
2019-02-06T22:14:20.549Z,37.83
2019-02-06T22:16:51.594Z,37.90
2019-02-06T22:19:23.161Z,38.63
2019-02-06T22:21:54.426Z,37.47
2019-02-06T22:24:26.332Z,35.87
2019-02-06T22:26:57.705Z,38.30
2019-02-06T22:29:28.965Z,37.07
2019-02-06T22:31:59.880Z,37.53
2019-02-06T22:34:31.074Z,35.80
2019-02-06T22:37:02.909Z,35.47
2019-02-06T22:39:34.413Z,36.60
2019-02-06T22:42:05.706Z,39.30
2019-02-06T22:44:37.384Z,37.30
2019-02-06T22:47:08.816Z,36.77
2019-02-06T22:49:40.108Z,39.13
2019-02-06T22:52:11.568Z,39.17
2019-02-06T22:54:46.323Z,39.03
2019-02-06T22:57:17.573Z,38.63
2019-02-06T22:59:48.865Z,37.37
2019-02-06T23:02:20.213Z,38.73
2019-02-06T23:04:52.005Z,40.13
2019-02-06T23:07:22.770Z,36.67
2019-02-06T23:09:53.649Z,37.73
2019-02-06T23:12:27.294Z,38.03
2019-02-06T23:14:57.822Z,38.57
2019-02-06T23:17:30.737Z,38.83
2019-02-06T23:20:01.654Z,37.63
2019-02-06T23:22:33.203Z,39.17
2019-02-06T23:25:05.549Z,37.87
2019-02-06T23:27:37.038Z,39.73
2019-02-06T23:30:10.775Z,41.87
2019-02-06T23:32:43.191Z,39.13
2019-02-06T23:35:14.674Z,40.23
2019-02-06T23:37:45.651Z,40.13
2019-02-06T23:40:16.074Z,38.40
2019-02-06T23:42:48.140Z,39.87
2019-02-06T23:45:19.367Z,39.83
2019-02-06T23:47:59.542Z,39.77
2019-02-06T23:50:41.407Z,39.70
2019-02-06T23:53:28.097Z,40.47
2019-02-06T23:56:05.566Z,39.57
2019-02-06T23:58:36.649Z,39.27
